Time;durP1;ratioP1;P1;durP2;ratioP2;P2;SDS_P1;SDS_P2;PMS_P1;PMS_P2;Temp;Humidity;BMP_temperature;BMP_pressure;BME280_temperature;BME280_humidity;BME280_pressure;Samples;Min_cycle;Max_cycle;Signal;HPM_P1;HPM_P2
2022/01/22 00:00:16;;;;;;;0.60;0.60;;;;;;;;;;1836475;78;26281;-34
2022/01/22 00:02:43;;;;;;;0.40;0.40;;;;;;;;;;1833454;78;26313;-36
2022/01/22 00:05:11;;;;;;;0.47;0.47;;;;;;;;;;1833320;76;26728;-35
2022/01/22 00:07:39;;;;;;;0.33;0.33;;;;;;;;;;1836656;78;26264;-35
2022/01/22 00:10:13;;;;;;;0.57;0.57;;;;;;;;;;1834170;78;26269;-35
2022/01/22 00:15:07;;;;;;;0.37;0.37;;;;;;;;;;1833861;78;26257;-36
2022/01/22 00:17:35;;;;;;;0.50;0.50;;;;;;;;;;1834102;77;26780;-36
2022/01/22 00:20:03;;;;;;;0.40;0.40;;;;;;;;;;1856798;77;26284;-36
2022/01/22 00:22:33;;;;;;;0.50;0.50;;;;;;;;;;1853313;77;26684;-34
2022/01/22 00:25:01;;;;;;;1.85;0.60;;;;;;;;;;1856370;76;26276;-40
2022/01/22 00:27:29;;;;;;;0.53;0.53;;;;;;;;;;1854282;77;26303;-39
2022/01/22 00:29:57;;;;;;;0.30;0.30;;;;;;;;;;1854896;77;26290;-40
2022/01/22 00:32:24;;;;;;;0.50;0.50;;;;;;;;;;1856829;77;26381;-38
2022/01/22 00:34:51;;;;;;;0.50;0.50;;;;;;;;;;1857469;76;26314;-35
2022/01/22 00:37:18;;;;;;;0.40;0.40;;;;;;;;;;1857283;77;26306;-37
2022/01/22 00:39:46;;;;;;;0.30;0.30;;;;;;;;;;1853705;77;26276;-35
2022/01/22 00:42:15;;;;;;;0.40;0.40;;;;;;;;;;1857176;77;26322;-35
2022/01/22 00:44:43;;;;;;;0.40;0.40;;;;;;;;;;1856880;77;26267;-39
2022/01/22 00:47:10;;;;;;;0.50;0.50;;;;;;;;;;1854514;76;26333;-39
2022/01/22 00:49:38;;;;;;;0.45;0.45;;;;;;;;;;1857255;77;26314;-35
2022/01/22 00:52:06;;;;;;;0.50;0.50;;;;;;;;;;1857315;77;26285;-39
2022/01/22 00:54:33;;;;;;;0.30;0.30;;;;;;;;;;1857141;77;26352;-36
2022/01/22 00:57:00;;;;;;;0.40;0.40;;;;;;;;;;1857361;76;26213;-34
2022/01/22 00:59:27;;;;;;;0.30;0.30;;;;;;;;;;1857126;77;27434;-34
2022/01/22 01:01:55;;;;;;;0.50;0.50;;;;;;;;;;1857505;77;26551;-36
2022/01/22 01:04:22;;;;;;;0.40;0.40;;;;;;;;;;1853741;76;26260;-39
2022/01/22 01:06:50;;;;;;;0.40;0.40;;;;;;;;;;1851904;76;26672;-33
2022/01/22 01:09:17;;;;;;;0.50;0.50;;;;;;;;;;1857910;76;26212;-33
2022/01/22 01:11:50;;;;;;;0.33;0.33;;;;;;;;;;1857248;77;26837;-33
2022/01/22 01:14:20;;;;;;;0.62;0.30;;;;;;;;;;1855708;76;26382;-35
2022/01/22 01:16:57;;;;;;;0.47;0.47;;;;;;;;;;1855956;77;26257;-40
2022/01/22 01:33:05;;;;;;;0.40;0.40;;;;;;;;;;1833851;78;26838;-38
2022/01/22 01:35:30;;;;;;;0.55;0.55;;;;;;;;;;1833781;76;26375;-35
2022/01/22 01:37:59;;;;;;;0.23;0.23;;;;;;;;;;1833864;76;26709;-35
2022/01/22 01:40:27;;;;;;;0.40;0.40;;;;;;;;;;1836211;78;26290;-36
2022/01/22 01:43:07;;;;;;;0.35;0.35;;;;;;;;;;1835591;78;26346;-34
2022/01/22 01:45:27;;;;;;;0.30;0.30;;;;;;;;;;1830077;78;26272;-35
2022/01/22 01:47:57;;;;;;;0.30;0.30;;;;;;;;;;1824642;77;26642;-34
2022/01/22 01:50:25;;;;;;;0.40;0.40;;;;;;;;;;1834617;77;26390;-34
2022/01/22 01:53:09;;;;;;;0.40;0.40;;;;;;;;;;1836325;78;26286;-34
2022/01/22 01:55:34;;;;;;;0.40;0.40;;;;;;;;;;1830829;78;26393;-34
2022/01/22 01:57:51;;;;;;;0.35;0.35;;;;;;;;;;1831035;78;26313;-38
2022/01/22 02:00:20;;;;;;;0.25;0.25;;;;;;;;;;1836046;76;26384;-34
2022/01/22 02:02:48;;;;;;;0.40;0.40;;;;;;;;;;1836393;78;26213;-34
2022/01/22 02:05:16;;;;;;;0.40;0.40;;;;;;;;;;1831955;76;26312;-37
2022/01/22 02:07:44;;;;;;;0.40;0.40;;;;;;;;;;1836046;78;26285;-38
2022/01/22 02:10:17;;;;;;;0.30;0.30;;;;;;;;;;1836398;78;26350;-35
2022/01/22 02:23:45;;;;;;;0.40;0.40;;;;;;;;;;1833433;78;26825;-34
2022/01/22 02:26:14;;;;;;;0.85;0.50;;;;;;;;;;1830534;77;26792;-37
2022/01/22 02:28:42;;;;;;;0.40;0.40;;;;;;;;;;1832035;78;26309;-35
2022/01/22 02:31:24;;;;;;;0.30;0.30;;;;;;;;;;1837107;78;26277;-35
2022/01/22 02:33:52;;;;;;;0.47;0.47;;;;;;;;;;1833484;76;26808;-34
2022/01/22 02:36:25;;;;;;;0.35;0.35;;;;;;;;;;1834685;77;26320;-35
2022/01/22 02:38:58;;;;;;;0.30;0.30;;;;;;;;;;1834893;76;26308;-38
2022/01/22 02:41:20;;;;;;;0.30;0.30;;;;;;;;;;1832376;78;26361;-36
2022/01/22 02:43:47;;;;;;;0.40;0.40;;;;;;;;;;1834426;76;26343;-34
2022/01/22 02:46:16;;;;;;;0.30;0.30;;;;;;;;;;1836954;78;26398;-34
2022/01/22 02:48:44;;;;;;;0.23;0.23;;;;;;;;;;1825744;76;26317;-35
2022/01/22 02:51:11;;;;;;;0.30;0.30;;;;;;;;;;1821560;76;26763;-36
2022/01/22 02:53:39;;;;;;;0.50;0.50;;;;;;;;;;1836971;78;26295;-37
2022/01/22 02:56:07;;;;;;;0.40;0.40;;;;;;;;;;1837080;77;26354;-40
2022/01/22 02:58:35;;;;;;;0.40;0.40;;;;;;;;;;1828126;76;26358;-34
2022/01/22 03:01:02;;;;;;;0.47;0.47;;;;;;;;;;1818904;78;26260;-36
2022/01/22 03:03:29;;;;;;;0.30;0.30;;;;;;;;;;1836944;78;26276;-35
2022/01/22 03:05:57;;;;;;;0.30;0.30;;;;;;;;;;1834736;78;26906;-36
2022/01/22 03:08:28;;;;;;;0.20;0.20;;;;;;;;;;1838801;77;26717;-37
2022/01/22 03:10:54;;;;;;;0.50;0.50;;;;;;;;;;1827819;77;26237;-38
2022/01/22 03:16:33;;;;;;;0.40;0.40;;;;;;;;;;1826932;77;26362;-38
2022/01/22 03:19:03;;;;;;;0.40;0.40;;;;;;;;;;1828012;76;26370;-36
2022/01/22 03:29:36;;;;;;;0.37;0.37;;;;;;;;;;1822641;78;26832;-35
2022/01/22 03:32:02;;;;;;;0.33;0.33;;;;;;;;;;1836230;78;26903;-40
2022/01/22 03:34:36;;;;;;;0.30;0.30;;;;;;;;;;1822172;76;26311;-34
2022/01/22 03:36:58;;;;;;;0.40;0.40;;;;;;;;;;1835624;78;26296;-34
2022/01/22 03:39:25;;;;;;;0.37;0.37;;;;;;;;;;1836874;76;26277;-35
2022/01/22 03:41:53;;;;;;;0.40;0.40;;;;;;;;;;1837230;76;26260;-37
2022/01/22 03:44:20;;;;;;;0.40;0.40;;;;;;;;;;1836966;76;26736;-35
2022/01/22 03:46:48;;;;;;;0.40;0.40;;;;;;;;;;1836803;78;26361;-34
2022/01/22 03:49:16;;;;;;;0.30;0.30;;;;;;;;;;1835205;78;26653;-34
2022/01/22 03:51:44;;;;;;;0.40;0.40;;;;;;;;;;1836630;76;26359;-35
2022/01/22 03:54:11;;;;;;;0.50;0.50;;;;;;;;;;1847667;76;26281;-35
2022/01/22 03:56:43;;;;;;;0.30;0.30;;;;;;;;;;1837097;78;26285;-34
2022/01/22 03:59:08;;;;;;;0.35;0.35;;;;;;;;;;1835223;76;26374;-36
2022/01/22 04:04:37;;;;;;;0.20;0.20;;;;;;;;;;1834553;78;26270;-36
2022/01/22 04:09:32;;;;;;;0.47;0.47;;;;;;;;;;1778340;76;26353;-33
2022/01/22 04:12:00;;;;;;;0.35;0.35;;;;;;;;;;1834870;76;26758;-34
2022/01/22 04:14:32;;;;;;;0.33;0.33;;;;;;;;;;1818451;78;26320;-34
2022/01/22 04:25:10;;;;;;;0.30;0.30;;;;;;;;;;1834999;78;26332;-35
2022/01/22 04:27:38;;;;;;;0.30;0.30;;;;;;;;;;1836844;76;26415;-36
2022/01/22 04:30:05;;;;;;;0.30;0.30;;;;;;;;;;1836780;78;26331;-34
2022/01/22 04:32:33;;;;;;;0.30;0.30;;;;;;;;;;1836925;78;26346;-37
2022/01/22 04:35:01;;;;;;;0.30;0.30;;;;;;;;;;1836926;76;26249;-36
2022/01/22 04:37:29;;;;;;;0.30;0.30;;;;;;;;;;1836929;78;26277;-35
2022/01/22 04:39:56;;;;;;;0.20;0.20;;;;;;;;;;1836518;78;26260;-33
2022/01/22 04:42:25;;;;;;;0.50;0.50;;;;;;;;;;1836841;76;27240;-34
2022/01/22 04:45:04;;;;;;;0.37;0.37;;;;;;;;;;1835954;76;26359;-34
2022/01/22 04:47:36;;;;;;;0.50;0.50;;;;;;;;;;1835712;76;26340;-35
2022/01/22 04:54:57;;;;;;;0.40;0.40;;;;;;;;;;1836821;76;26241;-36
2022/01/22 04:55:11;;;;;;;0.30;0.30;;;;;;;;;;1833534;77;26284;-35
2022/01/22 04:57:40;;;;;;;0.20;0.20;;;;;;;;;;1834597;76;26810;-35
2022/01/22 05:00:09;;;;;;;0.30;0.30;;;;;;;;;;1836736;76;26748;-34
2022/01/22 05:02:36;;;;;;;0.28;0.28;;;;;;;;;;1843476;76;26306;-34
2022/01/22 05:05:05;;;;;;;0.30;0.30;;;;;;;;;;1837283;77;26334;-34
2022/01/22 05:07:32;;;;;;;0.28;0.28;;;;;;;;;;1836921;78;26260;-36
2022/01/22 05:10:01;;;;;;;0.30;0.30;;;;;;;;;;1836349;78;26308;-35
2022/01/22 05:12:29;;;;;;;0.30;0.30;;;;;;;;;;1836890;78;26329;-35
2022/01/22 05:14:56;;;;;;;0.20;0.20;;;;;;;;;;1835458;77;26701;-34
2022/01/22 05:17:24;;;;;;;0.40;0.40;;;;;;;;;;1834343;78;26761;-36
2022/01/22 05:19:58;;;;;;;0.88;0.40;;;;;;;;;;1832587;76;26422;-35
2022/01/22 05:25:10;;;;;;;0.30;0.30;;;;;;;;;;1825126;77;26292;-35
2022/01/22 05:30:34;;;;;;;0.35;0.35;;;;;;;;;;1836953;78;26772;-35
2022/01/22 05:38:09;;;;;;;0.53;0.40;;;;;;;;;;1836587;76;26238;-36
2022/01/22 05:40:36;;;;;;;0.28;0.28;;;;;;;;;;1824654;76;26790;-34
2022/01/22 05:43:04;;;;;;;0.60;0.55;;;;;;;;;;1837124;78;26284;-34
2022/01/22 05:45:32;;;;;;;0.33;0.33;;;;;;;;;;1836822;76;26717;-40
2022/01/22 05:47:59;;;;;;;0.30;0.30;;;;;;;;;;1827826;76;26288;-39
2022/01/22 05:50:37;;;;;;;0.40;0.40;;;;;;;;;;1835656;78;26347;-40
2022/01/22 05:53:07;;;;;;;0.30;0.30;;;;;;;;;;1835860;76;26351;-35
2022/01/22 05:59:35;;;;;;;0.35;0.35;;;;;;;;;;1828581;76;26411;-35
2022/01/22 06:00:44;;;;;;;0.42;0.42;;;;;;;;;;1835556;78;27293;-34
2022/01/22 06:03:11;;;;;;;0.30;0.30;;;;;;;;;;1836368;78;26272;-38
2022/01/22 06:05:39;;;;;;;0.30;0.30;;;;;;;;;;1832945;76;26338;-34
2022/01/22 06:08:06;;;;;;;0.30;0.30;;;;;;;;;;1835825;78;26319;-38
2022/01/22 06:10:34;;;;;;;0.40;0.40;;;;;;;;;;1835907;78;26272;-34
2022/01/22 06:13:17;;;;;;;0.35;0.35;;;;;;;;;;1836520;77;26359;-34
2022/01/22 06:15:43;;;;;;;0.40;0.40;;;;;;;;;;1835902;78;26276;-34
2022/01/22 06:18:10;;;;;;;0.40;0.40;;;;;;;;;;1836608;78;26307;-35
2022/01/22 06:20:37;;;;;;;0.30;0.30;;;;;;;;;;1836330;78;26297;-35
2022/01/22 06:23:05;;;;;;;0.60;0.40;;;;;;;;;;1834180;77;26793;-35
2022/01/22 06:25:32;;;;;;;0.30;0.30;;;;;;;;;;1836636;78;26333;-40
2022/01/22 06:28:01;;;;;;;0.90;0.40;;;;;;;;;;1836879;78;26273;-39
2022/01/22 06:30:29;;;;;;;0.40;0.40;;;;;;;;;;1836654;78;26319;-33
2022/01/22 06:32:56;;;;;;;0.40;0.40;;;;;;;;;;1833270;78;26836;-34
2022/01/22 06:35:23;;;;;;;0.30;0.30;;;;;;;;;;1835041;78;26308;-39
2022/01/22 06:37:51;;;;;;;0.40;0.40;;;;;;;;;;1832955;77;26300;-35
2022/01/22 06:42:48;;;;;;;0.33;0.33;;;;;;;;;;1836832;78;26284;-34
2022/01/22 06:45:15;;;;;;;0.40;0.40;;;;;;;;;;1836576;78;26225;-35
2022/01/22 06:47:42;;;;;;;0.75;0.50;;;;;;;;;;1836819;78;26291;-35
2022/01/22 06:50:10;;;;;;;0.30;0.30;;;;;;;;;;1832668;78;26264;-34
2022/01/22 06:52:39;;;;;;;1.40;0.40;;;;;;;;;;1837139;77;26341;-35
2022/01/22 06:55:07;;;;;;;0.28;0.28;;;;;;;;;;1835145;78;26783;-35
2022/01/22 06:57:35;;;;;;;0.30;0.30;;;;;;;;;;1836333;78;26360;-33
2022/01/22 07:00:03;;;;;;;1.47;0.30;;;;;;;;;;1835851;78;26276;-35
2022/01/22 07:02:30;;;;;;;0.50;0.50;;;;;;;;;;1834865;78;26260;-35
2022/01/22 07:04:58;;;;;;;0.30;0.30;;;;;;;;;;1835354;77;26225;-38
2022/01/22 07:07:25;;;;;;;0.40;0.40;;;;;;;;;;1836522;78;26285;-36
2022/01/22 07:09:52;;;;;;;0.62;0.30;;;;;;;;;;1836105;78;26772;-34
2022/01/22 07:12:20;;;;;;;0.40;0.40;;;;;;;;;;1835562;78;26806;-35
2022/01/22 07:14:49;;;;;;;0.40;0.40;;;;;;;;;;1835709;78;26888;-33
2022/01/22 07:17:17;;;;;;;0.35;0.35;;;;;;;;;;1836471;76;26801;-37
2022/01/22 07:19:45;;;;;;;0.30;0.30;;;;;;;;;;1836502;78;26316;-36
2022/01/22 07:24:47;;;;;;;0.30;0.30;;;;;;;;;;1814207;77;26287;-37
2022/01/22 07:27:15;;;;;;;0.40;0.40;;;;;;;;;;1855664;76;26346;-37
2022/01/22 07:29:43;;;;;;;1.40;0.42;;;;;;;;;;1855673;77;26240;-34
2022/01/22 07:32:17;;;;;;;0.40;0.40;;;;;;;;;;1854717;77;26279;-34
2022/01/22 07:34:39;;;;;;;0.30;0.30;;;;;;;;;;1855560;77;26735;-33
2022/01/22 07:37:06;;;;;;;0.50;0.50;;;;;;;;;;1857270;76;26335;-35
2022/01/22 07:39:34;;;;;;;0.40;0.40;;;;;;;;;;1853877;77;26337;-34
2022/01/22 07:42:01;;;;;;;0.42;0.42;;;;;;;;;;1854669;77;26440;-34
2022/01/22 07:44:29;;;;;;;0.50;0.50;;;;;;;;;;1857205;76;26909;-38
2022/01/22 07:46:56;;;;;;;0.40;0.40;;;;;;;;;;1855706;76;26316;-35
2022/01/22 07:49:24;;;;;;;0.30;0.30;;;;;;;;;;1857532;77;26425;-34
2022/01/22 07:51:51;;;;;;;0.55;0.55;;;;;;;;;;1854724;77;26757;-33
2022/01/22 07:54:21;;;;;;;0.30;0.30;;;;;;;;;;1857036;76;26657;-34
2022/01/22 07:56:47;;;;;;;0.33;0.33;;;;;;;;;;1857127;77;26282;-35
2022/01/22 07:59:15;;;;;;;2.52;0.50;;;;;;;;;;1857010;77;26274;-37
2022/01/22 08:01:42;;;;;;;0.50;0.50;;;;;;;;;;1857432;76;26326;-34
2022/01/22 08:04:09;;;;;;;0.50;0.45;;;;;;;;;;1852999;77;26261;-35
2022/01/22 08:06:37;;;;;;;1.75;0.50;;;;;;;;;;1856249;77;26351;-34
2022/01/22 08:09:05;;;;;;;0.70;0.30;;;;;;;;;;1856911;77;26649;-40
2022/01/22 08:11:32;;;;;;;0.60;0.60;;;;;;;;;;1856843;77;26311;-37
2022/01/22 08:14:00;;;;;;;0.60;0.60;;;;;;;;;;1853843;76;26259;-34
2022/01/22 08:16:27;;;;;;;0.93;0.60;;;;;;;;;;1853919;76;26282;-34
2022/01/22 08:18:54;;;;;;;3.12;0.75;;;;;;;;;;1856546;77;26284;-34
2022/01/22 08:21:21;;;;;;;1.45;0.57;;;;;;;;;;1852254;76;26308;-35
2022/01/22 08:23:49;;;;;;;0.62;0.62;;;;;;;;;;1836654;78;26260;-35
2022/01/22 08:26:20;;;;;;;1.30;0.50;;;;;;;;;;1816906;78;26288;-35
2022/01/22 08:28:57;;;;;;;0.78;0.60;;;;;;;;;;1836245;76;26464;-37
2022/01/22 08:36:47;;;;;;;1.02;0.60;;;;;;;;;;1821177;78;26305;-34
2022/01/22 08:39:16;;;;;;;0.57;0.53;;;;;;;;;;1836449;78;26386;-35
2022/01/22 08:41:44;;;;;;;2.37;0.88;;;;;;;;;;1837088;78;26322;-36
2022/01/22 08:44:12;;;;;;;0.53;0.50;;;;;;;;;;1837041;78;26712;-36
2022/01/22 08:46:40;;;;;;;5.87;0.93;;;;;;;;;;1836794;76;26871;-39
2022/01/22 08:49:08;;;;;;;0.75;0.60;;;;;;;;;;1837140;78;26320;-35
2022/01/22 08:51:38;;;;;;;0.60;0.53;;;;;;;;;;1829845;78;27040;-35
2022/01/22 08:54:06;;;;;;;2.02;0.88;;;;;;;;;;1834068;78;26280;-35
2022/01/22 08:56:33;;;;;;;1.10;0.80;;;;;;;;;;1836514;77;26370;-37
2022/01/22 08:59:01;;;;;;;1.77;0.88;;;;;;;;;;1840263;76;26772;-35
2022/01/22 09:01:28;;;;;;;1.22;0.78;;;;;;;;;;1834771;78;26319;-37
2022/01/22 09:03:56;;;;;;;1.90;0.88;;;;;;;;;;1836291;78;26225;-35
2022/01/22 09:06:23;;;;;;;0.80;0.80;;;;;;;;;;1832123;77;26592;-35
2022/01/22 09:08:53;;;;;;;1.65;0.70;;;;;;;;;;1836391;78;26273;-36
2022/01/22 09:11:20;;;;;;;1.27;0.70;;;;;;;;;;1836525;77;26360;-36
2022/01/22 09:13:47;;;;;;;4.75;1.10;;;;;;;;;;1836135;77;26672;-34
2022/01/22 09:16:14;;;;;;;1.10;0.80;;;;;;;;;;1836817;78;26202;-35
2022/01/22 09:18:42;;;;;;;0.60;0.60;;;;;;;;;;1836923;78;26269;-34
2022/01/22 09:21:10;;;;;;;3.05;0.80;;;;;;;;;;1828074;77;26227;-35
2022/01/22 09:23:37;;;;;;;0.98;0.78;;;;;;;;;;1844401;77;26727;-35
2022/01/22 09:26:05;;;;;;;1.05;0.70;;;;;;;;;;1851055;77;26303;-36
2022/01/22 09:28:34;;;;;;;0.93;0.68;;;;;;;;;;1847077;77;26779;-40
2022/01/22 09:31:02;;;;;;;0.75;0.50;;;;;;;;;;1851012;77;26720;-40
2022/01/22 09:33:29;;;;;;;3.85;0.75;;;;;;;;;;1841997;77;26358;-37
2022/01/22 09:35:56;;;;;;;1.22;0.70;;;;;;;;;;1851109;77;26280;-34
2022/01/22 09:38:24;;;;;;;0.60;0.60;;;;;;;;;;1845300;76;26586;-36
2022/01/22 09:40:51;;;;;;;0.70;0.70;;;;;;;;;;1851827;77;26338;-35
2022/01/22 09:43:18;;;;;;;2.60;0.90;;;;;;;;;;1851751;77;26267;-36
2022/01/22 09:45:45;;;;;;;1.02;0.70;;;;;;;;;;1850966;77;26275;-34
2022/01/22 09:48:12;;;;;;;0.93;0.90;;;;;;;;;;1851865;77;26275;-38
2022/01/22 09:50:40;;;;;;;1.47;0.65;;;;;;;;;;1851572;77;26264;-37
2022/01/22 09:53:07;;;;;;;0.65;0.65;;;;;;;;;;1834962;77;26300;-35
2022/01/22 09:55:35;;;;;;;0.70;0.70;;;;;;;;;;1849215;77;26362;-36
2022/01/22 09:58:02;;;;;;;4.62;0.82;;;;;;;;;;1850757;76;26221;-39
2022/01/22 10:00:29;;;;;;;0.95;0.80;;;;;;;;;;1851246;77;26272;-36
2022/01/22 10:02:57;;;;;;;2.52;0.78;;;;;;;;;;1843296;77;26292;-38
2022/01/22 10:05:29;;;;;;;1.75;0.70;;;;;;;;;;1840363;77;26244;-40
2022/01/22 10:08:15;;;;;;;0.60;0.60;;;;;;;;;;1835962;77;26292;-37
2022/01/22 10:10:42;;;;;;;2.37;0.80;;;;;;;;;;1842592;77;27178;-38
2022/01/22 10:13:09;;;;;;;0.95;0.80;;;;;;;;;;1849387;76;26260;-35
2022/01/22 10:15:39;;;;;;;3.08;0.90;;;;;;;;;;1851337;77;26260;-35
2022/01/22 10:18:07;;;;;;;0.90;0.70;;;;;;;;;;1851662;77;26303;-34
2022/01/22 10:20:39;;;;;;;1.75;0.80;;;;;;;;;;1848834;77;26310;-36
2022/01/22 10:23:19;;;;;;;1.70;0.70;;;;;;;;;;1842916;76;26312;-35
2022/01/22 10:25:44;;;;;;;0.88;0.88;;;;;;;;;;1834089;78;26697;-35
2022/01/22 10:28:22;;;;;;;1.45;0.82;;;;;;;;;;1836600;78;26356;-36
2022/01/22 10:30:50;;;;;;;0.70;0.70;;;;;;;;;;1835944;76;26780;-35
2022/01/22 10:33:27;;;;;;;1.85;0.80;;;;;;;;;;1837039;78;26300;-36
2022/01/22 10:35:50;;;;;;;0.80;0.80;;;;;;;;;;1835799;76;26788;-36
2022/01/22 10:38:19;;;;;;;1.12;0.62;;;;;;;;;;1836344;76;26275;-39
2022/01/22 10:40:47;;;;;;;1.02;0.78;;;;;;;;;;1836871;78;26796;-34
2022/01/22 10:43:17;;;;;;;0.80;0.80;;;;;;;;;;1836992;78;26234;-38
2022/01/22 10:45:52;;;;;;;0.62;0.62;;;;;;;;;;1836918;76;26303;-37
2022/01/22 10:48:23;;;;;;;0.70;0.70;;;;;;;;;;1813717;78;26241;-36
2022/01/22 10:50:58;;;;;;;1.60;0.90;;;;;;;;;;1839872;77;26326;-37
2022/01/22 10:53:35;;;;;;;1.30;0.68;;;;;;;;;;1839039;75;26276;-41
2022/01/22 10:56:04;;;;;;;0.82;0.70;;;;;;;;;;1835472;76;26597;-36
2022/01/22 10:58:32;;;;;;;1.30;0.70;;;;;;;;;;1836106;78;26869;-39
2022/01/22 11:01:01;;;;;;;0.80;0.80;;;;;;;;;;1836187;78;26784;-35
2022/01/22 11:03:29;;;;;;;1.85;0.75;;;;;;;;;;1835158;78;26366;-40
2022/01/22 11:05:57;;;;;;;0.75;0.75;;;;;;;;;;1834718;76;26799;-35
2022/01/22 11:08:26;;;;;;;1.12;0.78;;;;;;;;;;1836531;78;27186;-38
2022/01/22 11:10:54;;;;;;;0.80;0.80;;;;;;;;;;1817362;78;26316;-39
2022/01/22 11:13:21;;;;;;;1.02;0.90;;;;;;;;;;1817725;76;26377;-36
2022/01/22 11:15:50;;;;;;;0.80;0.80;;;;;;;;;;1833411;78;26338;-37
2022/01/22 11:18:21;;;;;;;1.42;0.90;;;;;;;;;;1836065;76;26230;-37
2022/01/22 11:20:50;;;;;;;1.27;0.70;;;;;;;;;;1835541;76;26212;-34
2022/01/22 11:23:17;;;;;;;0.75;0.70;;;;;;;;;;1840395;76;26295;-34
2022/01/22 11:25:45;;;;;;;2.67;0.95;;;;;;;;;;1857665;77;26342;-35
2022/01/22 11:28:13;;;;;;;1.95;0.90;;;;;;;;;;1856664;76;26272;-34
2022/01/22 11:30:42;;;;;;;1.25;0.80;;;;;;;;;;1856310;76;26303;-34
2022/01/22 11:33:11;;;;;;;0.78;0.70;;;;;;;;;;1857647;77;26346;-35
2022/01/22 11:35:40;;;;;;;0.80;0.80;;;;;;;;;;1859317;76;26216;-34
2022/01/22 11:38:09;;;;;;;0.98;0.88;;;;;;;;;;1852048;76;26788;-34
2022/01/22 11:40:36;;;;;;;0.80;0.75;;;;;;;;;;1857507;77;26275;-35
2022/01/22 11:43:13;;;;;;;1.67;0.70;;;;;;;;;;1857758;77;26807;-36
2022/01/22 11:45:44;;;;;;;0.70;0.70;;;;;;;;;;1856772;77;26341;-33
2022/01/22 11:48:20;;;;;;;0.88;0.82;;;;;;;;;;1857206;77;26341;-35
2022/01/22 11:50:52;;;;;;;0.70;0.70;;;;;;;;;;1857613;76;26288;-35
2022/01/22 11:53:30;;;;;;;0.70;0.70;;;;;;;;;;1857486;76;26263;-39
2022/01/22 11:56:21;;;;;;;1.45;0.80;;;;;;;;;;1855606;76;26821;-35
2022/01/22 11:59:01;;;;;;;0.70;0.70;;;;;;;;;;1857389;76;26330;-39
2022/01/22 12:01:52;;;;;;;0.60;0.60;;;;;;;;;;1840962;77;26998;-33
2022/01/22 12:04:20;;;;;;;0.65;0.65;;;;;;;;;;1855874;77;26324;-39
2022/01/22 12:07:04;;;;;;;0.80;0.80;;;;;;;;;;1854996;77;26676;-34
2022/01/22 12:09:39;;;;;;;0.80;0.80;;;;;;;;;;1857385;77;26278;-34
2022/01/22 12:15:06;;;;;;;0.80;0.80;;;;;;;;;;1856643;77;26807;-34
2022/01/22 12:17:52;;;;;;;0.68;0.68;;;;;;;;;;1857252;77;26303;-38
2022/01/22 12:23:14;;;;;;;0.85;0.80;;;;;;;;;;1856789;76;26412;-37
2022/01/22 12:25:43;;;;;;;0.80;0.80;;;;;;;;;;1853270;77;26376;-35
2022/01/22 12:28:12;;;;;;;0.85;0.85;;;;;;;;;;1856782;76;26333;-36
2022/01/22 12:30:44;;;;;;;0.70;0.70;;;;;;;;;;1853372;77;26322;-33
2022/01/22 12:33:31;;;;;;;0.80;0.80;;;;;;;;;;1856848;77;26295;-38
2022/01/22 12:36:03;;;;;;;0.70;0.70;;;;;;;;;;1857019;76;26324;-35
2022/01/22 12:41:28;;;;;;;1.60;0.95;;;;;;;;;;1853594;77;26271;-37
2022/01/22 12:43:44;;;;;;;3.08;0.90;;;;;;;;;;1852125;77;26339;-38
2022/01/22 12:46:12;;;;;;;0.80;0.80;;;;;;;;;;1857926;77;26336;-34
2022/01/22 12:48:41;;;;;;;1.82;1.30;;;;;;;;;;1857442;76;26782;-35
2022/01/22 12:51:09;;;;;;;0.90;0.90;;;;;;;;;;1852403;77;26205;-36
2022/01/22 12:53:41;;;;;;;1.05;1.05;;;;;;;;;;1857486;77;26341;-34
2022/01/22 12:58:38;;;;;;;1.05;1.00;;;;;;;;;;1857451;76;26849;-35
2022/01/22 13:01:09;;;;;;;1.25;0.90;;;;;;;;;;1856866;76;26268;-41
2022/01/22 13:03:37;;;;;;;1.27;1.00;;;;;;;;;;1857094;77;27364;-35
2022/01/22 13:06:05;;;;;;;1.57;1.17;;;;;;;;;;1851006;77;26271;-40
2022/01/22 13:08:34;;;;;;;0.93;0.93;;;;;;;;;;1848443;77;27154;-39
2022/01/22 13:11:02;;;;;;;1.10;1.00;;;;;;;;;;1853694;77;26763;-38
2022/01/22 13:13:30;;;;;;;1.35;1.12;;;;;;;;;;1853348;76;26419;-37
2022/01/22 13:16:05;;;;;;;1.32;1.20;;;;;;;;;;1857555;77;26744;-34
2022/01/22 13:18:39;;;;;;;1.27;1.00;;;;;;;;;;1856900;77;27237;-37
2022/01/22 13:21:07;;;;;;;3.00;1.40;;;;;;;;;;1843866;76;26351;-36
2022/01/22 13:23:35;;;;;;;1.00;1.00;;;;;;;;;;1853179;76;26408;-38
2022/01/22 13:26:02;;;;;;;1.60;1.15;;;;;;;;;;1835282;78;26846;-37
2022/01/22 13:28:36;;;;;;;5.75;1.57;;;;;;;;;;1835201;78;26296;-36
2022/01/22 13:31:05;;;;;;;1.10;1.10;;;;;;;;;;1832051;78;26758;-37
2022/01/22 13:36:14;;;;;;;1.12;1.12;;;;;;;;;;1835351;78;26713;-37
2022/01/22 13:49:29;;;;;;;0.90;0.90;;;;;;;;;;1821920;76;26335;-40
2022/01/22 13:51:58;;;;;;;1.20;1.10;;;;;;;;;;1826714;76;26317;-36
2022/01/22 13:54:29;;;;;;;0.95;0.95;;;;;;;;;;1835520;78;26276;-37
2022/01/22 13:56:59;;;;;;;2.47;1.12;;;;;;;;;;1833051;78;26311;-35
2022/01/22 13:59:28;;;;;;;1.10;1.00;;;;;;;;;;1834732;78;26320;-39
2022/01/22 14:02:11;;;;;;;1.22;1.10;;;;;;;;;;1835260;78;26699;-34
2022/01/22 14:04:43;;;;;;;1.90;1.12;;;;;;;;;;1829596;78;26383;-38
2022/01/22 14:07:14;;;;;;;1.00;1.00;;;;;;;;;;1826651;78;26734;-34
2022/01/22 14:09:52;;;;;;;1.42;1.32;;;;;;;;;;1833457;78;26272;-35
2022/01/22 14:12:19;;;;;;;1.10;1.00;;;;;;;;;;1834644;78;26640;-37
2022/01/22 14:14:57;;;;;;;0.93;0.90;;;;;;;;;;1835129;77;26362;-39
2022/01/22 14:17:29;;;;;;;1.12;1.10;;;;;;;;;;1832025;78;26630;-37
2022/01/22 14:19:59;;;;;;;1.27;1.17;;;;;;;;;;1832633;77;26332;-40
2022/01/22 14:22:27;;;;;;;1.00;1.00;;;;;;;;;;1830388;76;26355;-36
2022/01/22 14:25:11;;;;;;;1.10;1.10;;;;;;;;;;1841165;77;26364;-38
2022/01/22 14:27:38;;;;;;;1.20;1.10;;;;;;;;;;1851241;77;26342;-34
2022/01/22 14:30:06;;;;;;;2.60;1.02;;;;;;;;;;1856643;76;25754;-38
2022/01/22 14:32:35;;;;;;;1.10;1.00;;;;;;;;;;1856012;77;26750;-35
2022/01/22 14:35:04;;;;;;;1.02;0.98;;;;;;;;;;1855880;76;26369;-36
2022/01/22 14:37:33;;;;;;;3.27;0.95;;;;;;;;;;1852330;77;26278;-36
2022/01/22 14:45:19;;;;;;;1.55;1.15;;;;;;;;;;1855889;77;26287;-38
2022/01/22 14:47:48;;;;;;;1.95;1.10;;;;;;;;;;1856101;77;26350;-35
2022/01/22 14:50:15;;;;;;;1.10;1.00;;;;;;;;;;1855966;77;26801;-36
2022/01/22 14:52:45;;;;;;;1.30;1.00;;;;;;;;;;1843843;77;26854;-38
2022/01/22 14:55:11;;;;;;;1.02;1.00;;;;;;;;;;1851590;76;26365;-35
2022/01/22 14:57:39;;;;;;;0.90;0.90;;;;;;;;;;1858348;76;25316;-42
2022/01/22 15:00:08;;;;;;;1.92;1.05;;;;;;;;;;1852682;76;26331;-40
2022/01/22 15:02:37;;;;;;;1.25;1.20;;;;;;;;;;1856406;77;26789;-37
2022/01/22 15:05:06;;;;;;;1.52;1.02;;;;;;;;;;1853896;77;26334;-36
2022/01/22 15:07:33;;;;;;;1.80;1.10;;;;;;;;;;1858293;76;26311;-36
2022/01/22 15:10:01;;;;;;;1.25;1.00;;;;;;;;;;1856603;77;26291;-36
2022/01/22 15:12:28;;;;;;;1.85;0.88;;;;;;;;;;1856810;77;26287;-36
2022/01/22 15:14:55;;;;;;;1.05;0.93;;;;;;;;;;1851623;77;26287;-35
2022/01/22 15:19:53;;;;;;;1.22;1.07;;;;;;;;;;1853636;76;26291;-40
2022/01/22 15:22:20;;;;;;;3.67;1.00;;;;;;;;;;1855129;77;26236;-39
2022/01/22 15:24:53;;;;;;;1.42;1.07;;;;;;;;;;1855904;76;26739;-36
2022/01/22 15:27:21;;;;;;;1.05;0.95;;;;;;;;;;1833606;78;26777;-36
2022/01/22 15:30:10;;;;;;;1.00;0.90;;;;;;;;;;1834856;78;26269;-39
2022/01/22 15:32:32;;;;;;;1.45;1.00;;;;;;;;;;1824021;78;26273;-36
2022/01/22 15:35:00;;;;;;;0.85;0.80;;;;;;;;;;1824412;78;26344;-40
2022/01/22 15:37:25;;;;;;;0.98;0.98;;;;;;;;;;1832635;78;26277;-38
2022/01/22 15:39:52;;;;;;;0.90;0.90;;;;;;;;;;1834992;78;26276;-36
2022/01/22 15:42:20;;;;;;;0.82;0.82;;;;;;;;;;1836296;78;26878;-36
2022/01/22 15:44:47;;;;;;;0.90;0.90;;;;;;;;;;1835184;78;26268;-37
2022/01/22 15:47:15;;;;;;;0.90;0.90;;;;;;;;;;1835920;78;26269;-35
2022/01/22 15:49:45;;;;;;;0.80;0.70;;;;;;;;;;1834973;78;26636;-35
2022/01/22 15:52:12;;;;;;;1.15;0.88;;;;;;;;;;1832791;78;26275;-36
2022/01/22 15:54:44;;;;;;;0.93;0.88;;;;;;;;;;1835028;78;26359;-37
2022/01/22 15:57:09;;;;;;;0.90;0.90;;;;;;;;;;1833957;78;26362;-39
2022/01/22 15:59:37;;;;;;;1.25;0.90;;;;;;;;;;1834682;78;26313;-36
2022/01/22 16:02:04;;;;;;;1.02;1.00;;;;;;;;;;1833692;78;26264;-38
2022/01/22 16:04:33;;;;;;;1.07;0.90;;;;;;;;;;1830922;78;26260;-36
2022/01/22 16:07:07;;;;;;;0.85;0.85;;;;;;;;;;1834832;78;26369;-35
2022/01/22 16:09:31;;;;;;;1.07;1.00;;;;;;;;;;1829191;78;26705;-35
2022/01/22 16:11:59;;;;;;;0.72;0.72;;;;;;;;;;1835654;78;26918;-36
2022/01/22 16:14:27;;;;;;;1.00;0.72;;;;;;;;;;1835417;76;26398;-37
2022/01/22 16:16:55;;;;;;;1.10;1.00;;;;;;;;;;1835649;76;26707;-37
2022/01/22 16:19:23;;;;;;;1.55;0.93;;;;;;;;;;1836027;78;26296;-39
2022/01/22 16:21:52;;;;;;;1.22;0.70;;;;;;;;;;1834072;76;26285;-36
2022/01/22 16:24:20;;;;;;;0.80;0.80;;;;;;;;;;1835744;78;26418;-36
2022/01/22 16:26:47;;;;;;;0.80;0.80;;;;;;;;;;1849647;77;26740;-38
2022/01/22 16:29:14;;;;;;;2.37;0.85;;;;;;;;;;1856986;77;26288;-36
2022/01/22 16:31:44;;;;;;;1.30;0.90;;;;;;;;;;1856123;77;26266;-37
2022/01/22 16:34:11;;;;;;;2.20;0.98;;;;;;;;;;1857079;77;26283;-39
2022/01/22 16:36:38;;;;;;;1.02;1.02;;;;;;;;;;1856782;77;26343;-34
2022/01/22 16:39:06;;;;;;;0.82;0.82;;;;;;;;;;1853093;76;26322;-34
2022/01/22 16:41:34;;;;;;;0.80;0.80;;;;;;;;;;1856744;77;26334;-35
2022/01/22 16:44:31;;;;;;;0.82;0.80;;;;;;;;;;1856679;77;27320;-34